San Antonio North's Hourly Summary for Tuesday, May 15, 2018
Hour Temp
(f)
RH
(%)
Solar Rad.
(MJ/m2)
Rainfall
(in)
Wind
(mph)
5/15/2018 12:00 AM 77 65 0 0 1.38
5/15/2018 1:00 AM 75 71 0 0 1.03
5/15/2018 2:00 AM 74 74 0 0 0.38
5/15/2018 3:00 AM 73 79 0 0 0.57
5/15/2018 4:00 AM 72 84 0 0 0.79
5/15/2018 5:00 AM 72 84 0 0 0.72
5/15/2018 6:00 AM 72 85 0 0 0.41
5/15/2018 7:00 AM 71 86 0.01 0 0.26
5/15/2018 8:00 AM 72 85 0.18 0 0.21
5/15/2018 9:00 AM 75 68 0.77 0 0.4
5/15/2018 10:00 AM 79 58 1.68 0 0.81
5/15/2018 11:00 AM 81 54 2.06 0 1.19
5/15/2018 12:00 PM 84 48 2.9 0 1.31
5/15/2018 1:00 PM 86 45 3.34 0 1.19
5/15/2018 2:00 PM 88 43 3.35 0 1.29
5/15/2018 3:00 PM 89 41 3.03 0 1.24
5/15/2018 4:00 PM 91 38 3.01 0 1.85
5/15/2018 5:00 PM 91 38 2.07 0 1.54
5/15/2018 6:00 PM 89 39 0.97 0 2.09
5/15/2018 7:00 PM 88 41 0.81 0 2.35
5/15/2018 8:00 PM 87 42 0.4 0 1.97
5/15/2018 9:00 PM 84 44 0.02 0 3.02
5/15/2018 10:00 PM 81 47 0 0 5.02
5/15/2018 11:00 PM 76 61 0 0 2.46
Data Summary 80 59 24.60 0.00 1.40